createdAt,value
2023-05-01T00:04:29.076Z,2.10
2023-05-01T00:09:53.590Z,1.60
2023-05-01T00:15:17.201Z,1.92
2023-05-01T00:20:40.281Z,2.15
2023-05-01T00:26:10.904Z,1.48
2023-05-01T00:31:39.158Z,1.45
2023-05-01T00:37:02.456Z,2.30
2023-05-01T00:42:26.278Z,1.20
2023-05-01T00:47:49.161Z,2.05
2023-05-01T00:53:12.265Z,4.60
2023-05-01T00:58:37.365Z,1.95
2023-05-01T01:03:59.874Z,4.50
2023-05-01T01:09:28.973Z,5.47
2023-05-01T01:14:59.495Z,1.92
2023-05-01T01:20:35.777Z,2.77
2023-05-01T01:26:08.820Z,1.88
2023-05-01T01:31:34.993Z,2.30
2023-05-01T01:37:05.973Z,1.80
2023-05-01T01:42:37.593Z,2.60
2023-05-01T01:48:01.130Z,3.13
2023-05-01T01:53:32.022Z,3.58
2023-05-01T01:58:56.248Z,2.42
2023-05-01T02:04:19.614Z,3.05
2023-05-01T02:09:45.955Z,5.10
2023-05-01T02:15:11.806Z,2.40
2023-05-01T02:20:44.233Z,3.40
2023-05-01T02:26:05.184Z,2.72
2023-05-01T02:31:33.494Z,2.72
2023-05-01T02:37:01.652Z,2.88
2023-05-01T02:42:43.240Z,3.72
2023-05-01T02:48:15.874Z,5.78
2023-05-01T02:53:46.235Z,3.08
2023-05-01T02:59:16.965Z,3.55
2023-05-01T03:04:40.915Z,3.70
2023-05-01T03:10:10.302Z,5.10
2023-05-01T03:15:46.039Z,2.80
2023-05-01T03:21:14.332Z,3.17
2023-05-01T03:26:42.561Z,2.70
2023-05-01T03:32:09.245Z,2.83
2023-05-01T03:37:34.068Z,3.25
2023-05-01T03:42:56.870Z,2.53
2023-05-01T03:53:52.035Z,2.60
2023-05-01T03:59:17.161Z,1.90
2023-05-01T04:04:40.368Z,9.00
2023-05-01T04:10:07.231Z,11.70
2023-05-01T04:15:30.857Z,3.08
2023-05-01T04:20:54.218Z,2.50
2023-05-01T04:26:21.411Z,4.03
2023-05-01T04:31:47.411Z,3.55
2023-05-01T04:37:17.940Z,2.97
2023-05-01T04:42:42.716Z,3.33
2023-05-01T04:48:14.794Z,3.38
2023-05-01T04:53:48.989Z,4.43
2023-05-01T04:59:27.963Z,4.85
2023-05-01T05:04:53.953Z,4.05
2023-05-01T05:10:17.459Z,7.15
2023-05-01T05:15:52.727Z,6.00
2023-05-01T05:21:23.792Z,4.63
2023-05-01T05:26:55.663Z,5.40
2023-05-01T05:32:27.691Z,4.45
2023-05-01T05:37:51.963Z,5.25
2023-05-01T05:43:19.019Z,3.38
2023-05-01T05:49:09.218Z,6.40
2023-05-01T05:54:39.101Z,3.20
2023-05-01T06:00:10.456Z,2.83
2023-05-01T06:05:39.913Z,3.70
2023-05-01T06:11:11.361Z,3.80
2023-05-01T06:16:35.464Z,3.38
2023-05-01T06:22:03.908Z,5.13
2023-05-01T06:27:39.280Z,5.47
2023-05-01T06:33:07.210Z,6.85
2023-05-01T06:38:38.964Z,6.05
2023-05-01T06:44:02.973Z,9.48
2023-05-01T06:49:29.473Z,9.18
2023-05-01T06:54:52.046Z,5.60
2023-05-01T07:00:22.039Z,6.70
2023-05-01T07:05:48.757Z,3.72
2023-05-01T07:11:12.416Z,1.88
2023-05-01T07:16:42.415Z,6.50
2023-05-01T07:22:05.597Z,3.45
2023-05-01T07:27:34.626Z,4.30
2023-05-01T07:33:03.446Z,2.25
2023-05-01T07:38:26.424Z,4.93
2023-05-01T07:43:49.939Z,3.85
2023-05-01T07:49:14.705Z,9.82
2023-05-01T07:54:37.727Z,1.40
2023-05-01T08:00:00.827Z,2.53
2023-05-01T08:05:26.993Z,5.88
2023-05-01T08:10:49.850Z,11.15
2023-05-01T08:16:13.056Z,5.50
2023-05-01T08:21:37.802Z,7.88
2023-05-01T08:27:14.174Z,5.90
2023-05-01T08:32:38.158Z,1.77
2023-05-01T08:38:07.699Z,1.63
2023-05-01T08:43:37.188Z,3.88
2023-05-01T08:49:04.618Z,2.17
2023-05-01T08:54:41.998Z,4.07
2023-05-01T09:00:05.949Z,1.35
2023-05-01T09:05:32.516Z,3.20
2023-05-01T09:11:06.319Z,6.85
2023-05-01T09:16:34.975Z,10.25
2023-05-01T09:22:03.458Z,3.70
2023-05-01T09:27:35.135Z,2.83
2023-05-01T09:33:14.991Z,2.55
2023-05-01T09:44:19.323Z,5.28
2023-05-01T09:49:52.096Z,9.55
2023-05-01T09:55:16.595Z,2.42
2023-05-01T10:00:50.850Z,6.60
2023-05-01T10:06:28.604Z,2.05
2023-05-01T10:11:59.568Z,6.45
2023-05-01T10:17:29.348Z,6.47
2023-05-01T10:22:57.886Z,3.47
2023-05-01T10:28:21.464Z,7.65
2023-05-01T10:33:53.235Z,6.38
2023-05-01T10:39:31.451Z,6.57
2023-05-01T10:45:29.377Z,3.45
2023-05-01T10:51:13.254Z,4.00
2023-05-01T10:56:42.898Z,5.68
2023-05-01T11:02:26.536Z,1.75
2023-05-01T11:08:10.571Z,2.28
2023-05-01T11:13:52.423Z,2.75
2023-05-01T11:19:34.364Z,3.45
2023-05-01T11:25:04.649Z,1.52
2023-05-01T11:30:38.452Z,2.65
2023-05-01T11:36:03.136Z,6.45
2023-05-01T11:41:32.912Z,10.77
2023-05-01T11:47:02.242Z,4.20
2023-05-01T11:52:31.397Z,2.35
2023-05-01T11:57:55.866Z,16.33
2023-05-01T12:03:19.306Z,11.20
2023-05-01T12:08:46.137Z,2.72
2023-05-01T12:14:26.209Z,2.80
2023-05-01T12:19:54.837Z,5.38
2023-05-01T12:30:50.104Z,3.03
2023-05-01T12:36:18.732Z,11.10
2023-05-01T12:47:21.288Z,7.28
2023-05-01T12:52:49.643Z,8.02
2023-05-01T12:58:13.028Z,4.57
2023-05-01T13:09:22.098Z,10.32
2023-05-01T13:14:53.912Z,3.25
2023-05-01T13:20:27.127Z,7.20
2023-05-01T13:26:02.099Z,14.45
2023-05-01T13:31:27.588Z,7.53
2023-05-01T13:36:52.311Z,9.23
2023-05-01T13:42:25.021Z,14.63
2023-05-01T13:47:50.453Z,3.20
2023-05-01T13:53:16.780Z,10.95
2023-05-01T13:58:47.508Z,13.63
2023-05-01T14:04:17.313Z,22.13
2023-05-01T14:09:43.955Z,24.17
2023-05-01T14:15:09.345Z,6.00
2023-05-01T14:20:32.245Z,7.40
2023-05-01T14:25:58.038Z,13.27
2023-05-01T14:31:29.932Z,10.13
2023-05-01T14:36:52.837Z,8.82
2023-05-01T14:42:15.997Z,21.25
2023-05-01T14:47:42.424Z,9.25
2023-05-01T14:53:05.356Z,13.23
2023-05-01T14:58:27.916Z,3.60
2023-05-01T15:03:57.452Z,15.65
2023-05-01T15:09:20.618Z,9.27
2023-05-01T15:14:43.131Z,16.92
2023-05-01T15:20:11.638Z,7.75
2023-05-01T15:25:34.615Z,8.23
2023-05-01T15:30:57.212Z,14.73
2023-05-01T15:36:32.103Z,12.65
2023-05-01T15:41:55.180Z,14.30
2023-05-01T15:47:18.217Z,18.60
2023-05-01T15:52:42.597Z,11.38
2023-05-01T15:58:05.765Z,21.35
2023-05-01T16:03:29.555Z,9.68
2023-05-01T16:08:54.103Z,9.98
2023-05-01T16:14:19.697Z,15.30
2023-05-01T16:19:43.296Z,7.85
2023-05-01T16:25:08.532Z,5.05
2023-05-01T16:30:36.332Z,3.10
2023-05-01T16:35:59.733Z,3.42
2023-05-01T16:41:26.864Z,1.90
2023-05-01T16:46:52.024Z,12.23
2023-05-01T16:52:16.348Z,3.30
2023-05-01T16:57:44.597Z,8.40
2023-05-01T17:03:07.853Z,7.30
2023-05-01T17:08:31.139Z,11.85
2023-05-01T17:13:57.661Z,18.05
2023-05-01T17:19:21.376Z,7.90
2023-05-01T17:24:44.145Z,16.33
2023-05-01T17:30:12.408Z,7.10
2023-05-01T17:35:36.737Z,14.80
2023-05-01T17:40:59.717Z,10.57
2023-05-01T17:46:27.008Z,17.48
2023-05-01T17:51:51.255Z,20.30
2023-05-01T17:57:14.101Z,29.42
2023-05-01T18:02:39.625Z,24.75
2023-05-01T18:08:03.572Z,32.90
2023-05-01T18:13:28.216Z,23.77
2023-05-01T18:18:53.267Z,28.75
2023-05-01T18:24:16.250Z,23.17
2023-05-01T18:29:39.348Z,28.73
2023-05-01T18:35:06.423Z,26.92
2023-05-01T18:40:29.230Z,19.88
2023-05-01T18:46:00.332Z,20.88
2023-05-01T18:51:32.380Z,20.45
2023-05-01T18:56:55.984Z,21.83
2023-05-01T19:02:19.780Z,30.92
2023-05-01T19:07:47.034Z,25.40
2023-05-01T19:13:10.316Z,29.40
2023-05-01T19:18:34.322Z,33.10
2023-05-01T19:24:04.934Z,30.90
2023-05-01T19:29:27.844Z,38.22
2023-05-01T19:34:50.766Z,23.75
2023-05-01T19:40:18.184Z,24.17
2023-05-01T19:45:41.336Z,17.45
2023-05-01T19:51:04.130Z,23.73
2023-05-01T19:56:30.653Z,17.60
2023-05-01T20:01:53.813Z,15.85
2023-05-01T20:07:18.516Z,25.73
2023-05-01T20:12:43.326Z,15.65
2023-05-01T20:18:06.846Z,21.00
2023-05-01T20:23:30.136Z,13.05
2023-05-01T20:28:54.840Z,16.40
2023-05-01T20:34:17.835Z,15.98
2023-05-01T20:39:41.094Z,16.25
2023-05-01T20:45:07.901Z,14.05
2023-05-01T20:50:39.286Z,17.83
2023-05-01T20:56:02.733Z,20.90
2023-05-01T21:01:27.222Z,34.88
2023-05-01T21:06:51.131Z,39.25
2023-05-01T21:12:14.489Z,31.95
2023-05-01T21:17:40.778Z,18.27
2023-05-01T21:23:06.815Z,17.10
2023-05-01T21:28:35.473Z,28.42
2023-05-01T21:34:04.563Z,18.05
2023-05-01T21:39:33.233Z,25.45
2023-05-01T21:44:56.089Z,22.13
2023-05-01T21:50:25.957Z,15.43
2023-05-01T21:55:51.006Z,16.58
2023-05-01T22:01:20.569Z,23.88
2023-05-01T22:06:51.950Z,15.75
2023-05-01T22:12:16.186Z,24.27
2023-05-01T22:17:45.434Z,17.43
2023-05-01T22:23:09.711Z,20.40
2023-05-01T22:28:35.492Z,28.63
2023-05-01T22:34:04.620Z,27.88
2023-05-01T22:39:30.876Z,33.03
2023-05-01T22:44:55.120Z,31.63
2023-05-01T22:50:18.912Z,24.20
2023-05-01T22:55:47.821Z,22.40
2023-05-01T23:01:16.553Z,21.38
2023-05-01T23:06:45.295Z,17.30
2023-05-01T23:12:18.093Z,16.48
2023-05-01T23:17:47.466Z,21.23
2023-05-01T23:23:14.897Z,12.18
2023-05-01T23:28:44.731Z,18.20
2023-05-01T23:34:15.906Z,17.05
2023-05-01T23:39:38.860Z,12.88
2023-05-01T23:45:03.426Z,15.25
2023-05-01T23:50:31.683Z,12.38
2023-05-01T23:55:54.752Z,12.80
